Time;durP1;ratioP1;P1;durP2;ratioP2;P2;SDS_P1;SDS_P2;PMS_P1;PMS_P2;Temp;Humidity;BMP_temperature;BMP_pressure;BME280_temperature;BME280_humidity;BME280_pressure;Samples;Min_cycle;Max_cycle;Signal;HPM_P1;HPM_P2
2023/01/13 00:01:25;;;;;;;21.70;10.30;;;;;;;-4.76;91.53;100269.30;110032;1277;139330;-60
2023/01/13 00:03:52;;;;;;;22.50;10.10;;;;;;;-4.76;91.49;100267.89;110147;1276;22221;-59
2023/01/13 00:06:20;;;;;;;;;;;;;;;-4.76;91.59;100269.16;110166;1276;22403;-60
2023/01/13 00:08:48;;;;;;;24.30;9.90;;;;;;;-4.76;91.65;100271.29;109999;1276;124478;-59
2023/01/13 00:11:15;;;;;;;29.30;10.20;;;;;;;-4.75;91.71;100272.95;110097;1273;23119;-60
2023/01/13 00:13:42;;;;;;;27.20;11.20;;;;;;;-4.75;91.83;100275.93;110001;1276;138401;-59
2023/01/13 00:16:16;;;;;;;23.50;10.20;;;;;;;-4.76;91.76;100276.53;110112;1277;22530;-59
2023/01/13 00:18:44;;;;;;;20.90;11.20;;;;;;;-4.76;91.83;100280.58;110008;1277;139025;-59
2023/01/13 00:21:19;;;;;;;29.20;10.40;;;;;;;-4.74;91.80;100280.67;110112;1272;22385;-59
2023/01/13 00:23:46;;;;;;;23.80;10.30;;;;;;;-4.74;91.75;100288.08;110127;1277;22288;-60
2023/01/13 00:26:20;;;;;;;27.60;11.90;;;;;;;-4.75;91.83;100287.23;109983;1271;138344;-60
2023/01/13 00:28:47;;;;;;;29.20;13.10;;;;;;;-4.72;91.88;100285.76;110107;1277;22370;-60
2023/01/13 00:31:16;;;;;;;29.50;11.60;;;;;;;-4.72;92.11;100282.18;109957;1272;138407;-60
2023/01/13 00:33:43;;;;;;;30.00;14.30;;;;;;;-4.67;92.19;100279.86;110098;1276;22409;-60
2023/01/13 00:36:11;;;;;;;28.00;12.70;;;;;;;-4.64;92.17;100283.92;110116;1277;22159;-59
2023/01/13 00:38:39;;;;;;;21.70;10.80;;;;;;;-4.61;92.17;100280.13;110021;1277;137974;-60
2023/01/13 00:41:08;;;;;;;27.50;11.40;;;;;;;-4.59;91.97;100279.28;110107;1277;22324;-60
2023/01/13 00:43:35;;;;;;;25.50;12.70;;;;;;;-4.60;91.99;100277.17;109943;1277;138403;-60
2023/01/13 00:46:06;;;;;;;24.50;9.70;;;;;;;-4.59;92.04;100276.09;110147;1270;23127;-59
2023/01/13 00:48:33;;;;;;;28.40;10.80;;;;;;;-4.60;91.99;100272.80;110007;1275;138007;-60
2023/01/13 00:51:08;;;;;;;34.70;12.80;;;;;;;-4.59;92.21;100272.14;110044;1277;22152;-60
2023/01/13 00:53:37;;;;;;;28.80;11.20;;;;;;;-4.58;92.08;100273.31;110120;1277;22368;-60
2023/01/13 00:56:15;;;;;;;36.80;12.90;;;;;;;-4.58;92.05;100266.04;109951;1277;139559;-60
2023/01/13 00:58:44;;;;;;;34.70;11.70;;;;;;;-4.58;92.09;100266.20;110119;1275;22877;-59
2023/01/13 01:01:13;;;;;;;26.90;11.20;;;;;;;-4.59;92.08;100262.56;110005;1275;138406;-60
2023/01/13 01:03:40;;;;;;;30.20;14.50;;;;;;;-4.59;92.06;100257.98;110107;1277;22199;-59
2023/01/13 01:06:11;;;;;;;;;;;;;;;-4.58;92.21;100257.02;110132;1277;23203;-60
2023/01/13 01:08:38;;;;;;;28.00;12.00;;;;;;;-4.57;92.25;100252.68;109935;1277;124058;-60
2023/01/13 01:11:05;;;;;;;;;;;;;;;-4.56;92.19;100253.25;110127;1275;22404;-60
2023/01/13 01:13:32;;;;;;;31.60;11.00;;;;;;;-4.55;92.28;100248.91;109990;1275;124419;-60
2023/01/13 01:16:02;;;;;;;26.80;11.60;;;;;;;-4.56;92.35;100251.48;110070;1272;22318;-60
2023/01/13 01:18:29;;;;;;;36.40;13.60;;;;;;;-4.57;92.32;100246.80;109941;1277;139448;-60
2023/01/13 01:20:58;;;;;;;33.20;13.10;;;;;;;-4.59;92.42;100246.79;110096;1277;22501;-60
2023/01/13 01:23:29;;;;;;;31.10;13.20;;;;;;;-4.57;92.38;100247.87;110063;1278;22226;-60
2023/01/13 01:26:03;;;;;;;35.10;11.50;;;;;;;-4.57;92.44;100246.11;109998;1277;138458;-60
2023/01/13 01:28:30;;;;;;;29.00;12.70;;;;;;;-4.56;92.52;100238.41;110088;1273;22193;-60
2023/01/13 01:31:00;;;;;;;;;;;;;;;-4.56;92.59;100234.84;110008;1277;139842;-59
2023/01/13 01:33:27;;;;;;;41.20;11.40;;;;;;;-4.59;92.47;100234.07;110118;1277;22223;-59
2023/01/13 01:35:54;;;;;;;;;;;;;;;-4.63;92.53;100230.92;110111;1271;22404;-60
2023/01/13 01:38:22;;;;;;;31.10;11.20;;;;;;;-4.67;92.59;100231.90;109916;1277;124081;-60
2023/01/13 01:40:49;;;;;;;26.40;10.70;;;;;;;-4.70;92.48;100233.23;106976;1272;23020;-61
2023/01/13 01:46:01;;;;;;;30.20;11.50;;;;;;;-4.73;92.79;100227.56;105658;1277;24919;-61
2023/01/13 01:48:30;;;;;;;43.50;13.90;;;;;;;-4.73;93.00;100224.73;105526;1277;140375;-60
2023/01/13 01:50:57;;;;;;;34.30;13.00;;;;;;;-4.73;93.04;100224.31;110113;1277;23172;-62
2023/01/13 01:53:24;;;;;;;39.60;12.60;;;;;;;-4.73;93.15;100221.84;110010;1278;22245;-62
2023/01/13 01:55:50;;;;;;;44.10;13.30;;;;;;;-4.74;93.14;100220.40;109920;1275;138406;-62
2023/01/13 01:58:20;;;;;;;;;;;;;;;-4.75;93.18;100219.08;110122;1278;22425;-61
2023/01/13 02:00:47;;;;;;;33.00;12.40;;;;;;;-4.75;93.40;100220.27;109962;1276;124136;-62
2023/01/13 02:03:14;;;;;;;32.40;13.20;;;;;;;-4.75;93.26;100219.36;110117;1273;22253;-62
2023/01/13 02:05:41;;;;;;;28.60;11.60;;;;;;;-4.74;93.42;100220.57;109939;1277;22189;-62
2023/01/13 02:08:08;;;;;;;;;;;;;;;-4.72;93.38;100216.30;110007;1278;140091;-61
2023/01/13 02:10:35;;;;;;;30.10;10.70;;;;;;;-4.71;93.46;100216.20;110081;1275;22229;-61
2023/01/13 02:13:04;;;;;;;35.80;11.90;;;;;;;-4.71;93.52;100213.34;109867;1273;139914;-61
2023/01/13 02:15:34;;;;;;;34.20;12.20;;;;;;;-4.70;93.59;100212.23;110041;1277;22180;-61
2023/01/13 02:18:14;;;;;;;45.40;12.90;;;;;;;-4.69;93.51;100210.30;109988;1277;23056;-61
2023/01/13 02:20:56;;;;;;;42.50;13.00;;;;;;;-4.68;93.47;100211.45;109911;1277;138155;-61
2023/01/13 02:27:13;;;;;;;33.00;11.30;;;;;;;-4.65;93.50;100210.52;109954;1277;139335;-62
2023/01/13 02:33:02;;;;;;;30.50;11.60;;;;;;;-4.62;93.58;100213.45;109795;1282;22424;-61
2023/01/13 02:35:41;;;;;;;37.80;13.10;;;;;;;-4.62;93.48;100206.59;109788;1283;22202;-62
2023/01/13 02:38:08;;;;;;;46.90;14.30;;;;;;;-4.61;93.37;100204.97;109721;1282;139953;-61
2023/01/13 02:40:35;;;;;;;;;;;;;;;-4.61;93.43;100198.40;109815;1281;23178;-61
2023/01/13 02:46:39;;;;;;;25.20;12.40;;;;;;;-4.60;93.39;100191.90;109814;1281;22208;-61
2023/01/13 02:49:08;;;;;;;35.50;14.20;;;;;;;-4.62;93.29;100191.21;109620;1276;139168;-61
2023/01/13 02:51:35;;;;;;;30.10;12.90;;;;;;;-4.63;93.25;100190.45;109776;1281;22342;-61
2023/01/13 02:54:02;;;;;;;;;;;;;;;-4.67;93.18;100185.20;109710;1279;22475;-61
2023/01/13 02:56:30;;;;;;;38.60;12.60;;;;;;;-4.71;93.35;100187.10;109676;1281;124469;-62
2023/01/13 02:58:57;;;;;;;38.80;13.90;;;;;;;-4.70;93.12;100189.36;109751;1281;22433;-62
2023/01/13 03:01:24;;;;;;;;;;;;;;;-4.71;93.10;100188.73;109746;1282;138923;-62
2023/01/13 03:03:51;;;;;;;23.90;12.20;;;;;;;-4.72;93.10;100191.80;109794;1275;22335;-61
2023/01/13 03:06:40;;;;;;;40.40;14.10;;;;;;;-4.73;93.09;100185.92;109977;1278;22299;-62
2023/01/13 03:09:18;;;;;;;32.00;13.10;;;;;;;-4.76;93.15;100185.34;109892;1279;22305;-60
2023/01/13 03:11:51;;;;;;;29.10;13.40;;;;;;;-4.75;93.20;100183.47;110066;1276;22923;-61
2023/01/13 03:14:33;;;;;;;29.10;12.00;;;;;;;-4.74;93.19;100184.95;109906;1273;138967;-61
2023/01/13 03:17:08;;;;;;;26.50;13.30;;;;;;;-4.73;93.34;100183.93;110047;1276;22214;-62
2023/01/13 03:19:45;;;;;;;32.90;16.00;;;;;;;-4.71;93.27;100179.65;109894;1273;138390;-62
2023/01/13 03:22:32;;;;;;;48.20;15.90;;;;;;;-4.68;93.19;100183.86;109940;1275;22226;-62
2023/01/13 03:25:05;;;;;;;30.10;14.60;;;;;;;-4.68;93.32;100185.79;109828;1270;138475;-62
2023/01/13 03:27:45;;;;;;;32.60;13.70;;;;;;;-4.68;93.22;100184.52;109938;1277;22239;-62
2023/01/13 03:30:25;;;;;;;35.10;15.10;;;;;;;-4.67;93.31;100186.95;110047;1277;22300;-62
2023/01/13 03:33:01;;;;;;;44.90;14.70;;;;;;;-4.65;93.30;100189.58;109866;1277;138826;-61
2023/01/13 03:35:30;;;;;;;39.60;14.10;;;;;;;-4.63;93.35;100189.45;110020;1276;22518;-62
2023/01/13 03:38:01;;;;;;;40.60;14.50;;;;;;;-4.63;93.34;100191.88;109863;1278;138252;-62
2023/01/13 03:40:31;;;;;;;36.30;13.90;;;;;;;-4.63;93.37;100186.95;109938;1275;22330;-61
2023/01/13 03:45:48;;;;;;;38.60;15.80;;;;;;;-4.67;93.19;100176.98;110015;1278;22351;-62
2023/01/13 03:48:16;;;;;;;40.10;15.00;;;;;;;-4.69;93.28;100178.28;109945;1278;22267;-62
2023/01/13 03:50:48;;;;;;;38.90;13.90;;;;;;;-4.70;93.21;100175.31;109884;1276;139504;-62
2023/01/13 03:53:18;;;;;;;34.60;14.80;;;;;;;-4.71;93.31;100180.05;110030;1275;22766;-62
2023/01/13 03:55:54;;;;;;;39.10;15.20;;;;;;;-4.71;93.44;100182.15;109795;1276;139467;-62
2023/01/13 03:58:23;;;;;;;36.80;16.10;;;;;;;-4.70;93.35;100181.20;109919;1277;22343;-62
2023/01/13 04:01:04;;;;;;;33.20;14.80;;;;;;;-4.69;93.57;100183.71;109774;1276;140205;-61
2023/01/13 04:03:40;;;;;;;56.20;20.00;;;;;;;-4.67;93.56;100181.80;109911;1278;22861;-62
2023/01/13 04:06:33;;;;;;;39.30;17.30;;;;;;;-4.67;93.44;100179.14;109942;1278;22335;-62
2023/01/13 04:09:29;;;;;;;41.10;17.80;;;;;;;-4.67;93.46;100179.12;110039;1278;22197;-62
2023/01/13 04:12:20;;;;;;;36.10;14.90;;;;;;;-4.66;93.66;100175.29;110005;1277;22198;-62
2023/01/13 04:14:47;;;;;;;40.10;16.50;;;;;;;-4.65;93.62;100178.26;110028;1276;139929;-62
2023/01/13 04:17:14;;;;;;;44.70;19.30;;;;;;;-4.65;93.62;100178.95;109892;1277;22237;-62
2023/01/13 04:19:41;;;;;;;;;;;;;;;-4.66;93.62;100178.84;109900;1273;139552;-62
2023/01/13 04:22:07;;;;;;;36.70;15.00;;;;;;;-4.65;93.68;100178.89;110141;1273;22253;-62
2023/01/13 04:24:36;;;;;;;35.50;14.10;;;;;;;-4.64;93.86;100179.04;110127;1273;22357;-62
2023/01/13 04:27:03;;;;;;;41.20;14.90;;;;;;;-4.64;93.64;100178.14;110049;1274;23257;-62
2023/01/13 04:29:29;;;;;;;46.90;16.10;;;;;;;-4.65;93.64;100182.98;110085;1276;22204;-62
2023/01/13 04:31:56;;;;;;;35.20;15.00;;;;;;;-4.66;93.61;100188.27;110080;1276;138537;-62
2023/01/13 04:34:23;;;;;;;;;;;;;;;-4.68;93.75;100186.45;110110;1276;22426;-62
2023/01/13 04:36:52;;;;;;;29.80;13.20;;;;;;;-4.67;93.75;100187.13;109994;1276;124892;-62
2023/01/13 04:39:19;;;;;;;36.20;14.70;;;;;;;-4.67;93.80;100184.41;110173;1274;22205;-62
2023/01/13 04:41:57;;;;;;;34.80;15.70;;;;;;;-4.66;93.69;100186.17;110174;1276;22902;-62
2023/01/13 04:44:25;;;;;;;34.10;13.80;;;;;;;-4.65;93.79;100188.47;110019;1276;138918;-62
2023/01/13 04:46:52;;;;;;;33.10;15.20;;;;;;;-4.63;93.94;100188.55;110072;1270;22336;-62
2023/01/13 04:49:19;;;;;;;35.00;15.80;;;;;;;-4.62;93.94;100187.89;110070;1276;138565;-62
2023/01/13 04:51:46;;;;;;;44.60;15.70;;;;;;;-4.61;93.87;100186.00;110049;1276;24630;-62
2023/01/13 04:54:12;;;;;;;34.40;14.70;;;;;;;-4.61;93.83;100182.47;110109;1276;22396;-61
2023/01/13 04:56:39;;;;;;;27.50;14.10;;;;;;;-4.60;93.83;100178.70;109982;1276;138600;-62
2023/01/13 04:59:06;;;;;;;32.10;13.90;;;;;;;-4.59;93.87;100179.81;110190;1276;23179;-62
2023/01/13 05:01:32;;;;;;;30.80;12.60;;;;;;;-4.57;93.79;100179.14;110014;1276;139269;-62
2023/01/13 05:03:59;;;;;;;;;;;;;;;-4.59;93.75;100178.41;110191;1273;22447;-62
2023/01/13 05:06:26;;;;;;;31.80;13.40;;;;;;;-4.57;93.80;100182.84;110100;1270;22399;-62
2023/01/13 05:08:53;;;;;;;26.70;13.20;;;;;;;-4.56;93.94;100180.81;110071;1276;139768;-62
2023/01/13 05:17:00;;;;;;;30.10;15.60;;;;;;;-4.54;93.79;100202.04;110137;1276;22363;-61
2023/01/13 05:19:32;;;;;;;29.50;13.00;;;;;;;-4.53;93.78;100198.02;109960;1276;138831;-61
2023/01/13 05:27:30;;;;;;;40.40;15.70;;;;;;;-4.53;93.73;100194.49;110185;1276;22203;-61
2023/01/13 05:29:57;;;;;;;25.90;13.50;;;;;;;-4.52;93.73;100199.73;110147;1276;22229;-61
2023/01/13 05:32:24;;;;;;;31.90;13.90;;;;;;;-4.52;93.83;100195.98;110040;1276;139743;-61
2023/01/13 05:34:50;;;;;;;35.50;15.50;;;;;;;-4.54;93.71;100192.45;110138;1276;22283;-61
2023/01/13 05:37:17;;;;;;;28.60;14.10;;;;;;;-4.55;93.60;100189.86;110035;1272;138653;-61
2023/01/13 05:45:15;;;;;;;37.10;15.60;;;;;;;-4.58;93.65;100183.75;110194;1270;22269;-59
2023/01/13 05:47:41;;;;;;;;;;;;;;;-4.56;93.57;100188.58;110153;1272;23862;-60
2023/01/13 05:50:09;;;;;;;31.60;14.90;;;;;;;-4.55;93.79;100184.20;110096;1273;125184;-60
2023/01/13 05:52:35;;;;;;;28.80;13.80;;;;;;;-4.53;93.75;100189.04;110106;1276;22429;-60
2023/01/13 05:55:02;;;;;;;27.90;14.30;;;;;;;-4.52;93.69;100191.95;110052;1276;140921;-59
2023/01/13 05:57:29;;;;;;;31.20;15.10;;;;;;;-4.50;93.87;100194.98;110124;1276;22342;-59
2023/01/13 05:59:56;;;;;;;29.40;14.40;;;;;;;-4.51;93.80;100197.15;110166;1276;22196;-60
2023/01/13 06:02:23;;;;;;;27.30;14.30;;;;;;;-4.51;93.70;100203.84;110029;1276;138537;-59
2023/01/13 06:04:50;;;;;;;31.00;13.10;;;;;;;-4.49;93.82;100212.94;110196;1276;22277;-60
2023/01/13 06:07:17;;;;;;;;;;;;;;;-4.48;93.82;100215.09;110030;1270;140104;-60
2023/01/13 06:09:43;;;;;;;26.60;13.70;;;;;;;-4.47;93.78;100211.93;110169;1272;22422;-60
2023/01/13 06:12:11;;;;;;;27.30;14.90;;;;;;;-4.45;93.81;100208.59;110117;1276;22350;-59
2023/01/13 06:14:40;;;;;;;34.20;15.20;;;;;;;-4.44;93.76;100212.23;110019;1272;138631;-60
2023/01/13 06:17:07;;;;;;;31.20;15.40;;;;;;;-4.44;93.81;100212.82;110142;1275;22245;-60
2023/01/13 06:19:34;;;;;;;29.10;15.90;;;;;;;-4.43;93.88;100211.80;110079;1276;139322;-60
2023/01/13 06:22:02;;;;;;;;;;;;;;;-4.43;93.80;100208.26;110121;1274;22409;-60
2023/01/13 06:24:29;;;;;;;29.90;13.80;;;;;;;-4.43;93.75;100207.89;110024;1273;23231;-60
2023/01/13 06:26:56;;;;;;;32.20;15.10;;;;;;;-4.44;93.69;100206.41;110034;1276;138200;-60
2023/01/13 06:29:23;;;;;;;33.80;15.50;;;;;;;-4.43;93.73;100209.88;110063;1276;22190;-60
2023/01/13 06:31:49;;;;;;;28.60;15.30;;;;;;;-4.44;93.83;100206.15;110051;1276;138727;-61
2023/01/13 06:34:16;;;;;;;;;;;;;;;-4.42;93.83;100210.10;110183;1275;22514;-61
2023/01/13 06:36:45;;;;;;;32.00;15.90;;;;;;;-4.39;93.95;100215.64;110011;1272;124622;-61
2023/01/13 06:39:13;;;;;;;34.30;19.90;;;;;;;-4.38;93.91;100212.42;110052;1276;22891;-59
2023/01/13 06:44:25;;;;;;;26.80;12.70;;;;;;;-4.32;93.91;100211.95;110057;1272;140093;-61
2023/01/13 06:46:52;;;;;;;26.90;15.00;;;;;;;-4.31;93.96;100212.70;110180;1270;22293;-60
2023/01/13 06:49:19;;;;;;;;;;;;;;;-4.29;93.93;100207.61;110060;1276;140182;-60
2023/01/13 06:51:47;;;;;;;26.60;13.70;;;;;;;-4.29;93.85;100205.13;110148;1272;22487;-60
2023/01/13 06:54:14;;;;;;;29.20;16.10;;;;;;;-4.29;93.70;100207.25;110146;1276;22185;-57
2023/01/13 06:56:41;;;;;;;33.30;15.30;;;;;;;-4.28;93.87;100204.98;110052;1272;138804;-61
2023/01/13 06:59:07;;;;;;;28.60;15.20;;;;;;;-4.27;93.80;100206.85;110155;1272;22624;-60
2023/01/13 07:01:34;;;;;;;30.10;16.10;;;;;;;-4.25;93.92;100208.63;109991;1272;140181;-60
2023/01/13 07:04:01;;;;;;;;;;;;;;;-4.22;93.82;100207.71;110152;1276;22527;-61
2023/01/13 07:06:28;;;;;;;25.60;14.00;;;;;;;-4.20;93.82;100206.02;110146;1276;22314;-61
2023/01/13 07:08:54;;;;;;;28.10;15.10;;;;;;;-4.18;93.88;100203.73;110056;1276;139055;-61
2023/01/13 07:11:21;;;;;;;25.30;14.40;;;;;;;-4.17;93.78;100208.54;110111;1276;22285;-61
2023/01/13 07:16:33;;;;;;;30.10;16.00;;;;;;;-4.13;93.90;100214.38;110156;1275;22911;-60
2023/01/13 07:19:00;;;;;;;35.10;17.50;;;;;;;-4.08;93.88;100214.31;110009;1276;139351;-61
2023/01/13 07:21:27;;;;;;;39.20;16.70;;;;;;;-4.04;93.91;100219.25;110195;1275;22266;-60
2023/01/13 07:23:54;;;;;;;30.20;17.60;;;;;;;-4.00;93.92;100225.88;110152;1273;22261;-58
2023/01/13 07:26:20;;;;;;;30.30;16.20;;;;;;;-3.96;93.83;100223.77;110071;1272;138550;-58
2023/01/13 07:28:47;;;;;;;33.60;15.70;;;;;;;-3.95;93.70;100227.52;110130;1270;24079;-58
2023/01/13 07:31:19;;;;;;;28.50;15.70;;;;;;;-3.93;93.71;100222.70;110043;1276;139159;-61
2023/01/13 07:33:46;;;;;;;33.60;15.60;;;;;;;-3.90;93.59;100225.68;110160;1276;22375;-61
2023/01/13 07:36:13;;;;;;;25.80;14.00;;;;;;;-3.89;93.63;100220.03;110159;1271;22343;-60
2023/01/13 07:38:40;;;;;;;;;;;;;;;-3.87;93.53;100220.77;110023;1271;138586;-61
2023/01/13 07:43:52;;;;;;;33.60;15.60;;;;;;;-3.81;93.55;100223.52;109877;1273;140355;-63
2023/01/13 07:46:19;;;;;;;32.40;14.90;;;;;;;-3.78;93.71;100222.90;110196;1275;22242;-64
2023/01/13 07:48:46;;;;;;;32.30;15.70;;;;;;;-3.73;93.46;100221.14;110047;1276;138468;-63
2023/01/13 07:51:12;;;;;;;28.60;15.80;;;;;;;-3.70;93.43;100221.23;110187;1276;22411;-64
2023/01/13 07:53:39;;;;;;;35.90;17.80;;;;;;;-3.69;93.32;100222.50;110139;1276;22380;-64
2023/01/13 07:56:06;;;;;;;30.10;14.50;;;;;;;-3.66;93.32;100224.36;110007;1276;138400;-64
2023/01/13 07:58:34;;;;;;;40.30;17.60;;;;;;;-3.63;93.29;100227.30;110129;1272;22843;-64
2023/01/13 08:01:06;;;;;;;35.90;18.00;;;;;;;-3.61;93.17;100228.89;110056;1275;140036;-64
2023/01/13 08:03:33;;;;;;;30.50;16.20;;;;;;;-3.61;93.16;100226.21;110081;1276;22299;-63
2023/01/13 08:06:00;;;;;;;32.20;16.70;;;;;;;-3.60;92.94;100222.21;110138;1276;23601;-64
2023/01/13 08:08:27;;;;;;;37.30;22.00;;;;;;;-3.61;92.79;100221.72;110001;1276;139467;-64
2023/01/13 08:10:57;;;;;;;46.70;24.80;;;;;;;-3.61;92.88;100216.46;110141;1276;23032;-64
2023/01/13 08:13:24;;;;;;;44.50;21.60;;;;;;;-3.61;92.99;100215.98;110078;1276;140399;-63
2023/01/13 08:15:53;;;;;;;41.60;21.40;;;;;;;-3.59;92.83;100217.46;110085;1276;22187;-62
2023/01/13 08:18:21;;;;;;;35.70;19.10;;;;;;;-3.58;92.91;100213.40;110108;1276;22211;-64
2023/01/13 08:20:48;;;;;;;34.10;18.60;;;;;;;-3.56;92.84;100214.88;110050;1276;138327;-64
2023/01/13 08:23:15;;;;;;;38.30;18.20;;;;;;;-3.55;92.80;100212.27;110175;1276;22206;-64
2023/01/13 08:25:42;;;;;;;36.40;17.90;;;;;;;-3.52;92.96;100218.77;110071;1275;140596;-64
2023/01/13 08:28:09;;;;;;;;;;;;;;;-3.50;92.76;100215.52;110187;1272;23237;-64
2023/01/13 08:30:36;;;;;;;34.70;16.50;;;;;;;-3.50;92.79;100210.35;110114;1276;22270;-65
2023/01/13 08:33:04;;;;;;;;;;;;;;;-3.52;92.63;100208.33;110057;1275;138161;-65
2023/01/13 08:35:31;;;;;;;33.90;16.90;;;;;;;-3.56;92.53;100207.02;110073;1271;22833;-64
2023/01/13 08:37:58;;;;;;;31.90;17.10;;;;;;;-3.56;92.58;100205.29;109964;1275;140132;-65
2023/01/13 08:40:24;;;;;;;34.80;17.30;;;;;;;-3.57;92.59;100208.77;110179;1272;23375;-65
2023/01/13 08:42:52;;;;;;;39.30;18.10;;;;;;;-3.58;92.56;100210.82;110023;1269;138777;-65
2023/01/13 08:45:19;;;;;;;41.80;19.00;;;;;;;-3.59;92.82;100202.39;109959;1274;22414;-65
2023/01/13 08:47:46;;;;;;;39.50;18.70;;;;;;;-3.56;92.72;100205.82;110172;1270;22344;-65
2023/01/13 08:50:13;;;;;;;36.80;18.80;;;;;;;-3.54;92.83;100205.80;109993;1276;138116;-65
2023/01/13 08:52:40;;;;;;;36.20;17.40;;;;;;;-3.53;92.67;100206.79;110126;1276;22203;-65
2023/01/13 08:55:06;;;;;;;;;;;;;;;-3.52;92.74;100207.06;110075;1269;140248;-65
2023/01/13 08:57:33;;;;;;;38.60;16.00;;;;;;;-3.50;92.69;100206.45;110121;1276;22928;-65
2023/01/13 09:00:00;;;;;;;29.70;16.90;;;;;;;-3.47;92.71;100197.36;110141;1272;22384;-65
2023/01/13 09:02:27;;;;;;;;;;;;;;;-3.45;92.74;100191.75;110084;1272;138678;-63
2023/01/13 09:04:54;;;;;;;39.00;17.30;;;;;;;-3.42;92.79;100190.71;110200;1276;22433;-62
2023/01/13 09:07:20;;;;;;;;;;;;;;;-3.41;92.75;100184.27;110049;1276;139016;-63
2023/01/13 09:09:47;;;;;;;31.80;13.40;;;;;;;-3.41;92.61;100183.52;110175;1272;22946;-65
2023/01/13 09:15:00;;;;;;;32.60;16.30;;;;;;;-3.38;92.73;100191.20;110005;1276;139518;-65
2023/01/13 09:17:27;;;;;;;;;;;;;;;-3.36;92.66;100189.39;110170;1276;22468;-65
2023/01/13 09:19:53;;;;;;;30.90;15.20;;;;;;;-3.34;92.63;100184.08;110036;1276;124719;-65
2023/01/13 09:22:20;;;;;;;31.30;15.10;;;;;;;-3.34;92.48;100182.68;110097;1272;22250;-65
2023/01/13 09:24:47;;;;;;;;;;;;;;;-3.34;92.42;100180.38;110133;1272;138704;-64
2023/01/13 09:27:14;;;;;;;29.60;15.40;;;;;;;-3.34;92.43;100180.38;110206;1276;22915;-65
2023/01/13 09:29:40;;;;;;;;;;;;;;;-3.32;92.48;100179.13;110126;1271;22992;-65
2023/01/13 09:32:10;;;;;;;28.30;15.00;;;;;;;-3.32;92.25;100183.02;110085;1272;125067;-62
2023/01/13 09:37:22;;;;;;;26.60;14.40;;;;;;;-3.32;92.31;100190.94;110094;1272;138587;-63
2023/01/13 09:39:49;;;;;;;27.80;15.40;;;;;;;-3.31;92.31;100191.01;108885;1258;22670;-59
2023/01/13 09:45:16;;;;;;;28.50;15.80;;;;;;;-3.27;92.12;100180.33;105845;1271;23865;-59
2023/01/13 09:47:54;;;;;;;32.20;17.80;;;;;;;-3.27;92.09;100176.46;110160;1272;22203;-59
2023/01/13 09:50:44;;;;;;;31.50;17.80;;;;;;;-3.28;92.10;100175.15;110072;1276;139319;-59
2023/01/13 09:53:14;;;;;;;31.20;16.60;;;;;;;-3.28;92.25;100172.56;110135;1269;22345;-59
2023/01/13 09:55:40;;;;;;;30.80;18.20;;;;;;;-3.23;92.22;100168.91;109870;1273;138544;-59
2023/01/13 09:58:12;;;;;;;33.40;18.50;;;;;;;-3.18;92.33;100167.30;109974;1270;22197;-60
2023/01/13 10:00:45;;;;;;;31.80;15.40;;;;;;;-3.18;92.12;100164.72;109971;1276;22443;-59
2023/01/13 10:03:23;;;;;;;28.60;17.00;;;;;;;-3.17;92.01;100158.60;110028;1273;22388;-59
2023/01/13 10:05:55;;;;;;;;;;;;;;;-3.17;91.84;100154.70;110115;1276;22476;-60
2023/01/13 10:08:33;;;;;;;22.10;13.40;;;;;;;-3.18;91.81;100152.17;110075;1271;124489;-60
2023/01/13 10:14:22;;;;;;;21.30;12.50;;;;;;;-3.17;91.64;100153.48;109983;1277;138957;-59
2023/01/13 10:17:13;;;;;;;21.80;13.00;;;;;;;-3.18;91.44;100150.68;110051;1276;22242;-60
2023/01/13 10:19:45;;;;;;;22.60;13.10;;;;;;;-3.17;91.53;100153.95;109927;1274;138877;-60
2023/01/13 10:22:23;;;;;;;23.50;13.50;;;;;;;-3.16;91.52;100155.27;110027;1277;22411;-59
2023/01/13 10:25:08;;;;;;;21.70;13.50;;;;;;;-3.14;91.60;100150.46;109909;1273;138472;-59
2023/01/13 10:27:36;;;;;;;28.70;16.50;;;;;;;-3.12;91.39;100150.83;110169;1272;23047;-59
2023/01/13 10:30:16;;;;;;;31.80;16.50;;;;;;;-3.11;91.48;100146.65;110116;1276;22833;-59
2023/01/13 10:32:46;;;;;;;28.10;15.80;;;;;;;-3.10;91.34;100145.30;109989;1271;140901;-59
2023/01/13 10:35:13;;;;;;;28.40;15.90;;;;;;;-3.08;91.41;100139.89;110038;1276;22517;-59
2023/01/13 10:37:40;;;;;;;22.30;14.70;;;;;;;-3.07;91.38;100141.17;110017;1272;139580;-59
2023/01/13 10:40:13;;;;;;;27.90;14.50;;;;;;;-3.09;91.24;100132.88;109965;1276;22837;-59
2023/01/13 10:42:39;;;;;;;24.70;14.70;;;;;;;-3.09;91.10;100134.30;109997;1277;22962;-59
2023/01/13 10:45:16;;;;;;;27.90;15.80;;;;;;;-3.08;91.12;100136.18;109858;1276;138533;-59
2023/01/13 10:47:43;;;;;;;22.50;13.70;;;;;;;-3.10;90.98;100138.64;110010;1276;22223;-60
2023/01/13 10:50:09;;;;;;;26.80;16.20;;;;;;;-3.09;91.01;100137.73;109949;1276;139455;-60
2023/01/13 10:52:42;;;;;;;23.60;14.00;;;;;;;-3.09;91.09;100131.45;110267;1276;22282;-59
2023/01/13 10:55:32;;;;;;;25.80;14.30;;;;;;;-3.10;91.01;100126.45;110036;1276;139145;-60
2023/01/13 10:58:17;;;;;;;25.20;13.80;;;;;;;-3.04;91.28;100129.16;110019;1274;22203;-60
2023/01/13 11:00:44;;;;;;;21.80;13.40;;;;;;;-2.97;91.26;100126.69;109961;1272;138574;-60
2023/01/13 11:03:15;;;;;;;25.60;12.60;;;;;;;-2.93;91.40;100127.30;110052;1275;22353;-60
2023/01/13 11:05:51;;;;;;;24.10;13.30;;;;;;;-2.90;91.22;100125.92;110134;1275;22194;-59
2023/01/13 11:08:23;;;;;;;24.90;13.90;;;;;;;-2.85;91.19;100129.03;110056;1276;138331;-59
2023/01/13 11:10:52;;;;;;;21.80;14.40;;;;;;;-2.85;90.92;100127.93;110251;1276;22456;-60
2023/01/13 11:14:31;;;;;;;20.00;12.30;;;;;;;-2.86;90.71;100126.03;109990;1269;139495;-61
2023/01/13 11:16:25;;;;;;;22.40;13.30;;;;;;;-2.85;90.71;100123.61;110003;1276;22510;-60
2023/01/13 11:19:10;;;;;;;22.30;12.20;;;;;;;-2.84;90.60;100122.84;109884;1274;138823;-60
2023/01/13 11:21:37;;;;;;;18.80;11.60;;;;;;;-2.85;90.47;100124.56;109966;1273;22486;-61
2023/01/13 11:24:14;;;;;;;26.10;13.40;;;;;;;-2.85;90.48;100127.20;110139;1275;22275;-61
2023/01/13 11:26:49;;;;;;;24.90;13.00;;;;;;;-2.83;90.68;100125.27;109883;1277;138288;-61
2023/01/13 11:29:19;;;;;;;19.80;11.50;;;;;;;-2.82;90.56;100122.06;109879;1276;185047;-60
2023/01/13 11:33:49;;;;;;;20.50;10.90;;;;;;;-2.78;90.29;100117.05;103244;1302;545022;-61
2023/01/13 11:36:19;;;;;;;20.70;11.70;;;;;;;-2.76;90.35;100118.17;105011;1280;22767;-60
2023/01/13 11:38:52;;;;;;;18.70;11.40;;;;;;;-2.74;90.23;100121.84;104624;1287;137520;-61
2023/01/13 11:41:31;;;;;;;23.00;13.70;;;;;;;-2.73;90.21;100125.74;105123;1287;22718;-57
2023/01/13 11:44:17;;;;;;;21.00;11.80;;;;;;;-2.72;90.18;100123.73;104691;1287;137493;-56
2023/01/13 11:46:43;;;;;;;21.90;12.50;;;;;;;-2.73;90.01;100114.73;104632;1290;206362;-56
2023/01/13 11:49:20;;;;;;;18.90;12.00;;;;;;;-2.73;89.92;100107.30;104642;1288;139208;-56
2023/01/13 11:51:49;;;;;;;;;;;;;;;-2.74;89.89;100109.34;109238;1289;23071;-56
2023/01/13 11:54:21;;;;;;;20.90;12.40;;;;;;;-2.73;89.99;100110.17;109348;1289;22290;-56
2023/01/13 11:57:27;;;;;;;25.00;14.20;;;;;;;-2.75;89.98;100112.04;109256;1283;139213;-56
2023/01/13 12:00:00;;;;;;;22.20;13.40;;;;;;;-2.75;89.98;100121.61;109169;1286;22389;-56
2023/01/13 12:02:47;;;;;;;23.50;13.40;;;;;;;-2.73;90.05;100122.60;109145;1289;139728;-56
2023/01/13 12:05:23;;;;;;;13.90;9.70;;;;;;;-2.69;90.08;100121.60;109406;1289;23058;-56
2023/01/13 12:08:08;;;;;;;21.10;12.90;;;;;;;-2.67;89.81;100124.30;109267;1289;139084;-57
2023/01/13 12:10:53;;;;;;;22.50;13.20;;;;;;;-2.65;89.82;100124.27;109283;1286;22284;-56
2023/01/13 12:13:44;;;;;;;19.60;11.70;;;;;;;-2.65;89.85;100122.09;109273;1284;138809;-56
2023/01/13 12:16:27;;;;;;;24.20;13.80;;;;;;;-2.64;89.66;100124.88;109350;1289;22322;-57